Capitol Logistics 7350

Operating for MZN



KDEN
Denver International Airport
Denver, Colorado
KSBD
San Bernardino International Airport
San Bernardino, California

Activity Log

Date Flight Route Aircraft Duration
No Flights Yet

Route Details

Aircraft Information
Primary: Boeing 767-300BDSF
Backup: Boeing 757-200SF
Route Data
Distance: 711nm
Duration: 1h 53m
Recm'd Route: CONNR7 WERNR ZAKRY Q114 NATEE HEC ZIGGY7
Origin Wx: KDEN 180253Z 35006KT 10SM BKN075 03/M06 A3020 RMK AO2 SLP231 T00281056 53009
Dest. Wx: KSBD 180251Z 24007KT 10SM FEW120 22/08 A2992
Notes: